createdAt,value
2023-04-08T00:02:39.575Z,51.06
2023-04-08T00:07:42.609Z,51.08
2023-04-08T00:12:45.542Z,51.54
2023-04-08T00:17:49.701Z,51.78
2023-04-08T00:22:52.755Z,51.83
2023-04-08T00:27:55.640Z,52.15
2023-04-08T00:32:59.881Z,52.50
2023-04-08T00:38:03.339Z,52.60
2023-04-08T00:43:06.073Z,52.58
2023-04-08T00:48:10.305Z,52.64
2023-04-08T00:53:13.609Z,52.78
2023-04-08T00:58:17.707Z,53.29
2023-04-08T01:03:31.617Z,53.54
2023-04-08T01:08:38.503Z,53.08
2023-04-08T01:13:43.317Z,53.67
2023-04-08T01:18:49.418Z,54.59
2023-04-08T01:24:02.116Z,55.23
2023-04-08T01:29:07.561Z,55.20
2023-04-08T01:34:11.850Z,54.95
2023-04-08T01:39:17.326Z,54.63
2023-04-08T01:44:24.179Z,55.46
2023-04-08T01:49:28.001Z,55.68
2023-04-08T01:54:30.824Z,56.58
2023-04-08T01:59:37.662Z,56.68
2023-04-08T02:04:41.470Z,56.62
2023-04-08T02:09:44.423Z,57.31
2023-04-08T02:14:48.840Z,57.65
2023-04-08T02:19:58.020Z,58.23
2023-04-08T02:25:02.235Z,58.38
2023-04-08T02:30:09.350Z,58.77
2023-04-08T02:35:13.460Z,59.46
2023-04-08T02:40:27.294Z,59.86
2023-04-08T02:45:33.631Z,60.44
2023-04-08T02:50:36.943Z,60.92
2023-04-08T02:55:40.121Z,61.34
2023-04-08T03:00:44.367Z,61.85
2023-04-08T03:05:47.131Z,62.25
2023-04-08T03:10:50.059Z,62.57
2023-04-08T03:15:54.248Z,62.56
2023-04-08T03:20:57.198Z,62.74
2023-04-08T03:26:00.115Z,62.98
2023-04-08T03:31:05.860Z,63.65
2023-04-08T03:36:09.876Z,64.68
2023-04-08T03:41:12.798Z,65.52
2023-04-08T03:46:17.106Z,65.76
2023-04-08T03:51:19.943Z,65.66
2023-04-08T03:56:22.896Z,65.41
2023-04-08T04:01:27.099Z,64.83
2023-04-08T04:06:29.838Z,64.85
2023-04-08T04:11:32.616Z,64.45
2023-04-08T04:16:36.763Z,64.77
2023-04-08T04:21:39.665Z,64.77
2023-04-08T04:26:42.731Z,65.05
2023-04-08T04:31:46.946Z,64.80
2023-04-08T04:36:49.838Z,64.88
2023-04-08T04:41:52.814Z,64.93
2023-04-08T04:46:58.132Z,65.12
2023-04-08T04:52:00.987Z,65.40
2023-04-08T04:57:03.818Z,65.50
2023-04-08T05:02:08.195Z,65.13
2023-04-08T05:07:11.015Z,65.01
2023-04-08T05:12:13.766Z,64.94
2023-04-08T05:17:17.919Z,64.90
2023-04-08T05:22:20.745Z,64.92
2023-04-08T05:27:23.546Z,65.09
2023-04-08T05:32:27.737Z,65.00
2023-04-08T05:37:30.526Z,64.70
2023-04-08T05:42:33.324Z,64.71
2023-04-08T05:47:37.627Z,64.55
2023-04-08T05:52:44.638Z,64.23
2023-04-08T05:57:47.527Z,65.17
2023-04-08T06:02:51.856Z,64.92
2023-04-08T06:07:54.741Z,63.79
2023-04-08T06:12:57.586Z,62.54
2023-04-08T06:18:01.794Z,62.25
2023-04-08T06:23:04.634Z,62.42
2023-04-08T06:28:07.387Z,62.60
2023-04-08T06:33:11.605Z,63.00
2023-04-08T06:38:14.354Z,62.59
2023-04-08T06:43:17.132Z,63.26
2023-04-08T06:48:23.406Z,63.83
2023-04-08T06:53:27.131Z,63.13
2023-04-08T06:58:30.912Z,62.89
2023-04-08T07:03:35.144Z,62.91
2023-04-08T07:08:38.709Z,61.91
2023-04-08T07:13:41.489Z,62.13
2023-04-08T07:18:45.791Z,61.83
2023-04-08T07:23:48.657Z,61.71
2023-04-08T07:28:51.911Z,61.22
2023-04-08T07:33:56.266Z,61.82
2023-04-08T07:38:59.061Z,62.08
2023-04-08T07:44:01.951Z,61.67
2023-04-08T07:49:06.104Z,61.82
2023-04-08T07:54:10.409Z,62.91
2023-04-08T07:59:13.195Z,63.26
2023-04-08T08:04:17.729Z,63.44
2023-04-08T08:09:20.788Z,63.28
2023-04-08T08:14:23.575Z,62.83
2023-04-08T08:19:27.742Z,62.19
2023-04-08T08:24:30.579Z,61.84
2023-04-08T08:29:33.610Z,60.24
2023-04-08T08:34:38.201Z,60.00
2023-04-08T08:39:41.015Z,58.70
2023-04-08T08:44:43.849Z,59.53
2023-04-08T08:49:48.975Z,59.51
2023-04-08T08:54:59.199Z,58.05
2023-04-08T09:00:02.132Z,55.66
2023-04-08T09:05:06.917Z,55.64
2023-04-08T09:10:11.159Z,56.52
2023-04-08T09:15:13.982Z,57.09
2023-04-08T09:20:18.198Z,57.48
2023-04-08T09:25:25.406Z,55.91
2023-04-08T09:30:29.080Z,54.56
2023-04-08T09:35:33.254Z,52.89
2023-04-08T09:40:36.851Z,52.12
2023-04-08T09:45:42.861Z,52.21
2023-04-08T09:50:51.836Z,52.38
2023-04-08T09:55:58.063Z,53.41
2023-04-08T10:01:01.795Z,54.64
2023-04-08T10:06:08.291Z,55.89
2023-04-08T10:11:11.622Z,56.88
2023-04-08T10:16:22.138Z,56.96
2023-04-08T10:21:43.670Z,57.62
2023-04-08T10:26:48.855Z,58.62
2023-04-08T10:31:52.633Z,58.49
2023-04-08T10:36:59.400Z,58.91
2023-04-08T10:42:04.186Z,58.91
2023-04-08T10:47:07.493Z,59.13
2023-04-08T10:52:12.050Z,58.86
2023-04-08T10:57:15.068Z,59.41
2023-04-08T11:02:18.084Z,58.32
2023-04-08T11:07:22.948Z,58.50
2023-04-08T11:12:27.859Z,58.34
2023-04-08T11:17:31.239Z,57.82
2023-04-08T11:22:35.833Z,57.26
2023-04-08T11:27:39.591Z,57.88
2023-04-08T11:32:42.608Z,58.30
2023-04-08T11:37:47.800Z,57.84
2023-04-08T11:42:51.332Z,57.98
2023-04-08T11:47:54.278Z,56.82
2023-04-08T11:52:58.503Z,55.04
2023-04-08T11:58:04.370Z,54.10
2023-04-08T12:03:07.649Z,54.84
2023-04-08T12:08:11.894Z,54.14
2023-04-08T12:13:14.702Z,53.74
2023-04-08T12:18:17.491Z,54.09
2023-04-08T12:23:21.680Z,54.94
2023-04-08T12:28:24.484Z,54.71
2023-04-08T12:33:27.323Z,54.92
2023-04-08T12:38:31.525Z,54.23
2023-04-08T12:43:34.533Z,55.32
2023-04-08T12:48:37.994Z,56.01
2023-04-08T12:53:42.330Z,57.01
2023-04-08T12:58:45.186Z,56.90
2023-04-08T13:03:48.657Z,57.44
2023-04-08T13:08:53.279Z,58.17
2023-04-08T13:13:56.211Z,57.66
2023-04-08T13:18:59.023Z,57.10
2023-04-08T13:24:03.223Z,57.72
2023-04-08T13:29:06.729Z,58.09
2023-04-08T13:34:09.471Z,58.68
2023-04-08T13:39:13.656Z,58.68
2023-04-08T13:44:17.034Z,58.81
2023-04-08T13:49:20.535Z,59.08
2023-04-08T13:54:24.685Z,58.50
2023-04-08T13:59:27.574Z,57.55
2023-04-08T14:04:30.419Z,56.95
2023-04-08T14:09:35.787Z,56.67
2023-04-08T14:14:38.658Z,56.06
2023-04-08T14:19:41.940Z,56.26
2023-04-08T14:24:46.031Z,56.96
2023-04-08T14:29:48.820Z,57.69
2023-04-08T14:34:51.919Z,57.62
2023-04-08T14:39:56.605Z,58.50
2023-04-08T14:44:59.376Z,58.33
2023-04-08T14:50:02.166Z,58.83
2023-04-08T14:55:07.171Z,59.41
2023-04-08T15:00:10.984Z,60.14
2023-04-08T15:05:13.830Z,60.14
2023-04-08T15:10:18.082Z,59.95
2023-04-08T15:15:20.826Z,60.51
2023-04-08T15:20:23.676Z,60.27
2023-04-08T15:25:27.880Z,59.60
2023-04-08T15:30:35.208Z,57.84
2023-04-08T15:35:39.428Z,57.49
2023-04-08T15:40:45.592Z,58.24
2023-04-08T15:45:50.315Z,58.03
2023-04-08T15:50:53.442Z,59.29
2023-04-08T15:55:57.724Z,59.32
2023-04-08T16:01:00.483Z,59.63
2023-04-08T16:06:03.445Z,60.30
2023-04-08T16:11:08.106Z,61.18
2023-04-08T16:16:12.286Z,61.31
2023-04-08T16:21:15.191Z,61.38
2023-04-08T16:26:19.778Z,61.96
2023-04-08T16:31:22.857Z,62.65
2023-04-08T16:36:25.802Z,63.18
2023-04-08T16:41:29.921Z,62.97
2023-04-08T16:46:32.941Z,63.20
2023-04-08T16:51:35.923Z,63.54
2023-04-08T16:56:44.279Z,63.74
2023-04-08T17:01:47.291Z,63.78
2023-04-08T17:06:50.126Z,63.87
2023-04-08T17:11:55.606Z,64.37
2023-04-08T17:16:58.466Z,63.96
2023-04-08T17:22:01.546Z,63.85
2023-04-08T17:27:06.024Z,63.92
2023-04-08T17:32:08.905Z,64.36
2023-04-08T17:37:11.686Z,64.37
2023-04-08T17:42:16.844Z,64.93
2023-04-08T17:47:20.957Z,64.99
2023-04-08T17:52:23.809Z,65.37
2023-04-08T17:57:28.452Z,65.53
2023-04-08T18:02:31.525Z,65.75
2023-04-08T18:07:34.487Z,65.97
2023-04-08T18:12:38.608Z,66.09
2023-04-08T18:17:41.424Z,65.82
2023-04-08T18:22:44.262Z,65.63
2023-04-08T18:27:48.662Z,65.70
2023-04-08T18:32:51.579Z,65.52
2023-04-08T18:37:54.409Z,65.63
2023-04-08T18:43:02.027Z,65.95
2023-04-08T18:48:04.974Z,66.19
2023-04-08T18:53:07.960Z,66.12
2023-04-08T18:58:12.254Z,65.73
2023-04-08T19:03:15.293Z,65.97
2023-04-08T19:08:18.124Z,66.41
2023-04-08T19:13:23.752Z,66.02
2023-04-08T19:18:26.587Z,65.82
2023-04-08T19:23:29.366Z,65.59
2023-04-08T19:28:33.824Z,65.39
2023-04-08T19:33:36.596Z,65.19
2023-04-08T19:38:39.659Z,65.12
2023-04-08T19:43:43.861Z,65.15
2023-04-08T19:48:46.718Z,65.11
2023-04-08T19:53:50.935Z,65.44
2023-04-08T19:58:55.308Z,65.57
2023-04-08T20:03:58.202Z,65.08
2023-04-08T20:09:05.372Z,64.92
2023-04-08T20:14:09.703Z,65.07
2023-04-08T20:19:12.541Z,65.44
2023-04-08T20:24:16.223Z,65.48
2023-04-08T20:29:20.398Z,66.11
2023-04-08T20:34:23.169Z,66.19
2023-04-08T20:39:29.809Z,66.60
2023-04-08T20:44:33.952Z,66.61
2023-04-08T20:49:40.820Z,66.72
2023-04-08T20:54:43.612Z,66.76
2023-04-08T20:59:47.769Z,66.75
2023-04-08T21:04:50.909Z,66.91
2023-04-08T21:09:53.709Z,67.06
2023-04-08T21:14:57.878Z,67.26
2023-04-08T21:20:00.876Z,67.41
2023-04-08T21:25:03.700Z,67.35
2023-04-08T21:30:09.001Z,67.59
2023-04-08T21:35:11.918Z,67.93
2023-04-08T21:40:14.884Z,67.88
2023-04-08T21:45:19.297Z,68.07
2023-04-08T21:50:22.111Z,68.32
2023-04-08T21:55:25.749Z,68.61
2023-04-08T22:00:30.121Z,68.82
2023-04-08T22:05:33.041Z,68.72
2023-04-08T22:10:35.809Z,68.58
2023-04-08T22:15:40.102Z,69.00
2023-04-08T22:20:42.843Z,69.10
2023-04-08T22:25:46.090Z,69.39
2023-04-08T22:30:50.581Z,69.45
2023-04-08T22:35:53.307Z,69.82
2023-04-08T22:40:56.198Z,69.67
2023-04-08T22:46:00.479Z,69.51
2023-04-08T22:51:03.241Z,69.45
2023-04-08T22:56:06.529Z,69.79
2023-04-08T23:01:16.940Z,70.00
2023-04-08T23:06:19.849Z,70.22
2023-04-08T23:11:22.600Z,70.14
2023-04-08T23:16:26.710Z,70.62
2023-04-08T23:21:29.493Z,70.92
2023-04-08T23:26:32.190Z,71.21
2023-04-08T23:31:36.382Z,71.31
2023-04-08T23:36:39.264Z,71.01
2023-04-08T23:41:42.022Z,70.32
2023-04-08T23:46:46.171Z,70.84
2023-04-08T23:51:49.016Z,71.18
2023-04-08T23:56:51.768Z,71.34
